createdAt,value
2018-07-19T00:01:54.556Z,15.80
2018-07-19T00:06:52.427Z,15.70
2018-07-19T00:11:50.692Z,15.70
2018-07-19T00:14:19.772Z,15.90
2018-07-19T00:16:48.854Z,16.00
2018-07-19T00:19:17.927Z,16.10
2018-07-19T00:24:16.329Z,15.90
2018-07-19T00:29:14.147Z,15.60
2018-07-19T00:31:43.243Z,15.50
2018-07-19T00:34:12.310Z,15.40
2018-07-19T00:36:41.387Z,15.40
2018-07-19T00:39:10.455Z,15.40
2018-07-19T00:41:43.763Z,15.40
2018-07-19T00:44:13.116Z,15.30
2018-07-19T00:46:42.217Z,15.30
2018-07-19T00:49:11.280Z,15.30
2018-07-19T00:51:40.350Z,15.20
2018-07-19T00:54:09.419Z,15.10
2018-07-19T00:56:38.491Z,15.00
2018-07-19T00:59:07.551Z,15.00
2018-07-19T01:04:05.691Z,14.90
2018-07-19T01:06:34.771Z,14.80
2018-07-19T01:09:05.131Z,14.70
2018-07-19T01:11:34.234Z,14.70
2018-07-19T01:14:03.327Z,14.70
2018-07-19T01:16:32.413Z,14.70
2018-07-19T01:19:01.503Z,14.70
2018-07-19T01:21:30.836Z,14.60
2018-07-19T01:24:00.126Z,14.50
2018-07-19T01:26:29.216Z,14.40
2018-07-19T01:28:58.272Z,14.30
2018-07-19T01:31:27.371Z,14.20
2018-07-19T01:33:56.467Z,14.20
2018-07-19T01:38:54.272Z,14.10
2018-07-19T01:41:36.395Z,14.10
2018-07-19T01:44:05.463Z,14.10
2018-07-19T01:46:34.556Z,14.10
2018-07-19T01:49:03.625Z,14.00
2018-07-19T01:51:32.674Z,14.10
2018-07-19T01:54:01.761Z,14.00
2018-07-19T01:56:30.837Z,13.90
2018-07-19T01:58:59.912Z,13.90
2018-07-19T02:03:57.731Z,13.90
2018-07-19T02:06:26.791Z,13.80
2018-07-19T02:11:25.000Z,13.80
2018-07-19T02:13:54.091Z,13.80
2018-07-19T02:21:20.579Z,13.60
2018-07-19T02:23:49.656Z,13.70
2018-07-19T02:28:47.455Z,13.60
2018-07-19T02:31:16.560Z,13.50
2018-07-19T02:33:45.956Z,13.50
2018-07-19T02:38:43.955Z,13.50
2018-07-19T02:41:13.012Z,13.50
2018-07-19T02:46:10.796Z,13.50
2018-07-19T02:48:39.876Z,13.50
2018-07-19T02:51:08.996Z,13.40
2018-07-19T02:53:38.095Z,13.40
2018-07-19T02:56:07.171Z,13.40
2018-07-19T02:58:36.243Z,13.20
2018-07-19T03:01:06.135Z,13.20
2018-07-19T03:03:35.216Z,13.10
2018-07-19T03:06:04.970Z,13.10
2018-07-19T03:08:34.171Z,13.20
2018-07-19T03:11:03.251Z,13.10
2018-07-19T03:13:32.339Z,13.20
2018-07-19T03:16:01.411Z,13.10
2018-07-19T03:18:31.516Z,13.10
2018-07-19T03:23:29.571Z,13.10
2018-07-19T03:25:58.630Z,13.00
2018-07-19T03:28:27.689Z,13.10
2018-07-19T03:33:25.507Z,13.20
2018-07-19T03:35:54.575Z,13.20
2018-07-19T03:40:52.349Z,13.10
2018-07-19T03:45:50.116Z,13.10
2018-07-19T03:48:19.207Z,13.10
2018-07-19T03:50:48.283Z,13.20
2018-07-19T03:53:17.355Z,13.20
2018-07-19T03:55:46.451Z,13.20
2018-07-19T03:58:15.511Z,13.20
2018-07-19T04:00:44.599Z,13.20
2018-07-19T04:03:13.660Z,13.30
2018-07-19T04:05:42.751Z,13.20
2018-07-19T04:08:11.812Z,13.30
2018-07-19T04:10:40.944Z,13.30
2018-07-19T04:13:10.023Z,13.30
2018-07-19T04:15:39.136Z,13.30
2018-07-19T04:18:08.267Z,13.30
2018-07-19T04:20:37.339Z,13.30
2018-07-19T04:23:06.411Z,13.40
2018-07-19T04:25:35.511Z,13.40
2018-07-19T04:28:04.584Z,13.50
2018-07-19T04:30:33.673Z,13.60
2018-07-19T04:33:02.732Z,13.60
2018-07-19T04:35:31.827Z,13.70
2018-07-19T04:38:00.883Z,13.70
2018-07-19T04:40:29.963Z,13.80
2018-07-19T04:42:59.038Z,13.80
2018-07-19T04:47:56.832Z,14.00
2018-07-19T04:52:54.608Z,14.20
2018-07-19T04:55:23.736Z,14.30
2018-07-19T04:57:52.888Z,14.40
2018-07-19T05:00:21.956Z,14.50
2018-07-19T05:02:51.048Z,14.60
2018-07-19T05:05:20.248Z,14.80
2018-07-19T05:07:49.343Z,14.90
2018-07-19T05:10:18.419Z,15.00
2018-07-19T05:12:47.519Z,15.10
2018-07-19T05:15:16.583Z,15.20
2018-07-19T05:22:43.883Z,15.50
2018-07-19T05:27:41.679Z,15.60
2018-07-19T05:30:10.820Z,15.80
2018-07-19T05:32:39.908Z,15.90
2018-07-19T05:35:08.980Z,16.00
2018-07-19T05:37:38.088Z,16.10
2018-07-19T05:40:07.183Z,16.20
2018-07-19T05:42:36.284Z,16.40
2018-07-19T05:45:05.400Z,16.50
2018-07-19T05:47:34.495Z,16.60
2018-07-19T05:50:03.569Z,16.60
2018-07-19T05:52:32.667Z,16.70
2018-07-19T05:55:01.860Z,16.70
2018-07-19T05:57:30.943Z,16.80
2018-07-19T06:00:00.328Z,16.80
2018-07-19T06:02:29.427Z,16.90
2018-07-19T06:04:58.499Z,17.10
2018-07-19T06:09:56.300Z,17.40
2018-07-19T06:14:54.099Z,17.70
2018-07-19T06:17:23.190Z,17.80
2018-07-19T06:19:52.272Z,17.90
2018-07-19T06:22:21.416Z,18.00
2018-07-19T06:24:50.485Z,18.10
2018-07-19T06:27:19.599Z,18.30
2018-07-19T06:29:48.670Z,18.30
2018-07-19T06:34:46.476Z,18.50
2018-07-19T06:37:15.548Z,18.60
2018-07-19T06:39:44.647Z,18.80
2018-07-19T06:42:13.731Z,18.80
2018-07-19T06:47:11.716Z,19.20
2018-07-19T06:49:40.829Z,19.20
2018-07-19T06:52:09.912Z,19.20
2018-07-19T06:54:39.178Z,19.20
2018-07-19T06:57:08.540Z,19.20
2018-07-19T06:59:37.640Z,19.30
2018-07-19T07:02:07.068Z,19.40
2018-07-19T07:04:36.151Z,19.40
2018-07-19T07:07:05.456Z,19.40
2018-07-19T07:09:34.617Z,19.50
2018-07-19T07:14:32.440Z,19.60
2018-07-19T07:17:01.531Z,19.60
2018-07-19T07:19:30.623Z,19.70
2018-07-19T07:21:59.696Z,19.90
2018-07-19T07:24:28.943Z,20.10
2018-07-19T07:26:58.013Z,20.30
2018-07-19T07:29:27.104Z,20.30
2018-07-19T07:31:56.195Z,20.50
2018-07-19T07:34:25.296Z,20.60
2018-07-19T07:36:54.352Z,20.60
2018-07-19T07:39:23.440Z,20.80
2018-07-19T07:41:52.507Z,20.90
2018-07-19T07:44:21.872Z,20.90
2018-07-19T07:46:50.939Z,21.00
2018-07-19T07:49:20.040Z,21.10
2018-07-19T07:51:49.096Z,21.20
2018-07-19T07:54:18.244Z,21.20
2018-07-19T07:56:47.284Z,21.30
2018-07-19T07:59:16.370Z,21.50
2018-07-19T08:01:45.440Z,21.70
2018-07-19T08:06:43.213Z,21.50
2018-07-19T08:11:41.004Z,21.60
2018-07-19T08:14:10.076Z,21.70
2018-07-19T08:19:07.880Z,21.90
2018-07-19T08:21:37.017Z,22.00
2018-07-19T08:24:06.072Z,22.20
2018-07-19T08:26:35.332Z,22.30
2018-07-19T08:29:04.446Z,22.40
2018-07-19T08:31:33.508Z,22.50
2018-07-19T08:34:02.585Z,22.70
2018-07-19T08:36:31.676Z,22.90
2018-07-19T08:39:00.756Z,23.10
2018-07-19T08:41:29.828Z,23.30
2018-07-19T08:43:58.887Z,23.50
2018-07-19T08:46:28.779Z,23.70
2018-07-19T08:48:57.840Z,24.10
2018-07-19T08:51:26.919Z,23.90
2018-07-19T08:53:56.007Z,23.80
2018-07-19T08:56:25.104Z,23.90
2018-07-19T08:58:54.160Z,24.10
2018-07-19T09:01:23.612Z,24.40
2018-07-19T09:06:21.515Z,24.40
2018-07-19T09:08:50.593Z,24.80
2018-07-19T09:11:19.824Z,24.60
2018-07-19T09:13:48.888Z,24.60
2018-07-19T09:16:17.984Z,24.50
2018-07-19T09:18:47.040Z,24.50
2018-07-19T09:21:16.140Z,24.40
2018-07-19T09:23:45.232Z,24.50
2018-07-19T09:26:14.316Z,24.70
2018-07-19T09:28:43.391Z,24.70
2018-07-19T09:31:12.471Z,24.90
2018-07-19T09:33:41.664Z,25.00
2018-07-19T09:36:10.736Z,25.00
2018-07-19T09:38:39.880Z,24.40
2018-07-19T09:41:08.924Z,24.40
2018-07-19T09:43:38.054Z,24.90
2018-07-19T09:46:07.099Z,25.60
2018-07-19T09:48:36.208Z,25.80
2018-07-19T09:51:05.268Z,25.50
2018-07-19T09:53:34.369Z,25.10
2018-07-19T10:01:02.127Z,25.10
2018-07-19T10:03:31.231Z,25.20
2018-07-19T10:06:00.295Z,24.70
2018-07-19T10:08:29.373Z,24.50
2018-07-19T10:10:58.464Z,24.70
2018-07-19T10:15:56.241Z,25.70
2018-07-19T10:18:25.340Z,26.30
2018-07-19T10:23:23.144Z,26.30
2018-07-19T10:25:52.223Z,26.30
2018-07-19T10:28:21.327Z,26.40
2018-07-19T10:30:50.408Z,25.90
2018-07-19T10:35:48.271Z,24.80
2018-07-19T10:38:17.378Z,25.20
2018-07-19T10:40:46.457Z,26.10
2018-07-19T10:43:15.561Z,26.70
2018-07-19T10:45:44.632Z,26.80
2018-07-19T10:48:13.715Z,26.80
2018-07-19T10:50:42.787Z,27.10
2018-07-19T10:53:11.845Z,27.40
2018-07-19T10:55:40.919Z,27.70
2018-07-19T10:58:10.217Z,27.70
2018-07-19T11:00:39.282Z,27.20
2018-07-19T11:03:08.336Z,26.60
2018-07-19T11:05:37.420Z,25.90
2018-07-19T11:08:06.492Z,26.40
2018-07-19T11:10:35.580Z,27.20
2018-07-19T11:13:04.630Z,27.20
2018-07-19T11:15:33.727Z,27.00
2018-07-19T11:18:02.780Z,26.90
2018-07-19T11:20:31.852Z,26.70
2018-07-19T11:23:00.903Z,26.50
2018-07-19T11:25:29.976Z,26.60
2018-07-19T11:27:59.032Z,26.60
2018-07-19T11:37:54.169Z,27.20
2018-07-19T11:40:23.245Z,27.00
2018-07-19T11:42:52.308Z,27.40
2018-07-19T11:45:21.379Z,27.40
2018-07-19T11:50:19.115Z,27.70
2018-07-19T11:52:48.185Z,27.50
2018-07-19T11:55:17.222Z,27.20
2018-07-19T11:57:47.139Z,26.70
2018-07-19T12:00:16.195Z,26.70
2018-07-19T12:02:45.272Z,26.90
2018-07-19T12:05:14.324Z,27.40
2018-07-19T12:07:43.396Z,27.50
2018-07-19T12:10:12.451Z,27.80
2018-07-19T12:15:10.263Z,27.40
2018-07-19T12:17:39.332Z,27.60
2018-07-19T12:20:08.860Z,27.80
2018-07-19T12:22:38.179Z,28.00
2018-07-19T12:25:07.600Z,27.90
2018-07-19T12:27:36.680Z,28.00
2018-07-19T12:30:05.840Z,27.90
2018-07-19T12:32:34.923Z,28.10
2018-07-19T12:40:01.368Z,27.70
2018-07-19T12:42:30.456Z,28.40
2018-07-19T12:44:59.512Z,28.70
2018-07-19T12:47:28.603Z,28.80
2018-07-19T12:49:57.660Z,28.80
2018-07-19T12:52:26.717Z,28.60
2018-07-19T12:54:55.790Z,29.00
2018-07-19T12:57:24.839Z,30.60
2018-07-19T12:59:53.916Z,31.70
2018-07-19T13:02:22.968Z,31.90
2018-07-19T13:04:52.143Z,32.60
2018-07-19T13:07:21.199Z,33.00
2018-07-19T13:09:50.272Z,33.70
2018-07-19T13:12:19.344Z,34.50
2018-07-19T13:14:48.411Z,35.50
2018-07-19T13:17:17.472Z,36.20
2018-07-19T13:19:46.612Z,35.40
2018-07-19T13:22:15.748Z,34.90
2018-07-19T13:24:44.791Z,34.90
2018-07-19T13:27:13.851Z,34.50
2018-07-19T13:29:42.921Z,35.50
2018-07-19T13:34:40.660Z,36.00
2018-07-19T13:37:09.728Z,37.10
2018-07-19T13:39:38.791Z,37.40
2018-07-19T13:47:05.248Z,36.50
2018-07-19T13:49:34.376Z,37.00
2018-07-19T13:52:03.436Z,36.90
2018-07-19T13:54:41.415Z,37.00
2018-07-19T13:57:10.491Z,35.60
2018-07-19T13:59:39.599Z,36.20
2018-07-19T14:02:08.655Z,36.70
2018-07-19T14:04:37.740Z,37.80
2018-07-19T14:07:06.796Z,38.20
2018-07-19T14:09:35.856Z,38.50
2018-07-19T14:12:05.090Z,38.90
2018-07-19T14:14:34.149Z,39.00
2018-07-19T14:17:03.211Z,39.70
2018-07-19T14:19:32.268Z,40.60
2018-07-19T14:22:01.350Z,40.10
2018-07-19T14:24:30.400Z,38.20
2018-07-19T14:26:59.465Z,36.90
2018-07-19T14:29:28.552Z,36.60
2018-07-19T14:31:57.624Z,37.00
2018-07-19T14:34:26.689Z,38.40
2018-07-19T14:36:55.760Z,38.90
2018-07-19T14:39:24.815Z,38.40
2018-07-19T14:41:53.884Z,37.60
2018-07-19T14:44:22.931Z,38.10
2018-07-19T14:46:52.004Z,38.10
2018-07-19T14:49:21.059Z,38.40
2018-07-19T14:51:50.123Z,39.10
2018-07-19T14:54:19.188Z,38.50
2018-07-19T14:56:48.244Z,39.20
2018-07-19T14:59:17.315Z,39.10
2018-07-19T15:01:46.379Z,38.10
2018-07-19T15:04:15.470Z,37.00
2018-07-19T15:06:44.528Z,37.90
2018-07-19T15:09:13.595Z,37.60
2018-07-19T15:11:42.677Z,37.40
2018-07-19T15:14:11.749Z,37.30
2018-07-19T15:16:40.809Z,37.70
2018-07-19T15:19:09.876Z,37.60
2018-07-19T15:21:38.927Z,38.80
2018-07-19T15:24:08.012Z,39.40
2018-07-19T15:26:37.073Z,39.90
2018-07-19T15:29:06.168Z,40.60
2018-07-19T15:31:35.220Z,40.10
2018-07-19T15:34:04.296Z,40.70
2018-07-19T15:39:02.041Z,41.40
2018-07-19T15:41:31.095Z,42.10
2018-07-19T15:44:00.173Z,42.60
2018-07-19T15:51:26.599Z,42.40
2018-07-19T15:53:55.702Z,42.30
2018-07-19T15:56:24.751Z,43.40
2018-07-19T15:58:53.800Z,40.80
2018-07-19T16:01:22.871Z,41.50
2018-07-19T16:03:51.919Z,41.10
2018-07-19T16:11:18.399Z,40.70
2018-07-19T16:13:47.475Z,41.80
2018-07-19T16:16:16.543Z,42.50
2018-07-19T16:18:45.609Z,42.30
2018-07-19T16:21:14.680Z,43.40
2018-07-19T16:28:41.179Z,42.70
2018-07-19T16:31:10.252Z,43.90
2018-07-19T16:33:39.336Z,43.90
2018-07-19T16:41:05.769Z,43.80
2018-07-19T16:43:34.832Z,44.60
2018-07-19T16:46:04.141Z,44.20
2018-07-19T16:48:33.197Z,44.90
2018-07-19T16:53:30.957Z,43.50
2018-07-19T16:56:00.069Z,42.90
2018-07-19T16:58:29.132Z,43.00
2018-07-19T17:00:58.203Z,43.10
2018-07-19T17:03:27.275Z,42.20
2018-07-19T17:05:56.331Z,42.40
2018-07-19T17:08:25.403Z,42.20
2018-07-19T17:10:54.481Z,42.90
2018-07-19T17:13:23.547Z,43.00
2018-07-19T17:18:21.285Z,41.20
2018-07-19T17:20:50.350Z,41.80
2018-07-19T17:23:19.579Z,41.50
2018-07-19T17:25:48.645Z,41.80
2018-07-19T17:28:17.723Z,42.40
2018-07-19T17:30:46.792Z,42.10
2018-07-19T17:33:15.963Z,41.20
2018-07-19T17:35:45.021Z,40.50
2018-07-19T17:38:14.100Z,40.50
2018-07-19T17:40:43.157Z,40.40
2018-07-19T17:43:12.237Z,40.60
2018-07-19T17:45:41.309Z,41.40
2018-07-19T17:48:10.388Z,40.80
2018-07-19T17:50:39.440Z,40.20
2018-07-19T17:53:08.521Z,38.40
2018-07-19T17:55:37.595Z,37.00
2018-07-19T17:58:06.711Z,36.50
2018-07-19T18:00:35.808Z,36.50
2018-07-19T18:03:04.892Z,36.90
2018-07-19T18:05:33.971Z,36.50
2018-07-19T18:10:31.773Z,36.40
2018-07-19T18:13:00.844Z,36.30
2018-07-19T18:15:29.900Z,36.40
2018-07-19T18:17:58.984Z,36.00
2018-07-19T18:20:28.060Z,34.80
2018-07-19T18:22:57.132Z,34.10
2018-07-19T18:27:54.921Z,34.80
2018-07-19T18:30:24.012Z,34.80
2018-07-19T18:32:53.071Z,34.80
2018-07-19T18:35:22.139Z,34.30
2018-07-19T18:37:51.193Z,34.40
2018-07-19T18:45:17.644Z,32.50
2018-07-19T18:47:46.712Z,32.20
2018-07-19T18:50:15.824Z,31.80
2018-07-19T18:52:44.880Z,31.00
2018-07-19T18:55:13.957Z,30.00
2018-07-19T19:02:40.395Z,28.10
2018-07-19T19:05:09.472Z,27.60
2018-07-19T19:07:38.531Z,27.10
2018-07-19T19:10:07.611Z,26.50
2018-07-19T19:15:06.351Z,26.10
2018-07-19T19:17:35.422Z,25.80
2018-07-19T19:22:33.439Z,25.10
2018-07-19T19:25:02.525Z,24.80
2018-07-19T19:27:31.582Z,24.50
2018-07-19T19:30:00.757Z,24.00
2018-07-19T19:32:29.892Z,23.80
2018-07-19T19:34:58.940Z,23.80
2018-07-19T19:37:27.992Z,23.60
2018-07-19T19:39:57.071Z,23.50
2018-07-19T19:44:54.800Z,23.30
2018-07-19T19:47:23.876Z,23.10
2018-07-19T19:49:52.936Z,22.90
2018-07-19T19:52:22.115Z,22.60
2018-07-19T19:54:51.164Z,22.50
2018-07-19T19:57:20.499Z,22.30
2018-07-19T19:59:49.556Z,22.20
2018-07-19T20:02:18.627Z,22.00
2018-07-19T20:04:47.698Z,21.90
2018-07-19T20:07:16.767Z,21.60
2018-07-19T20:09:46.060Z,21.50
2018-07-19T20:12:15.169Z,21.40
2018-07-19T20:14:44.243Z,21.20
2018-07-19T20:17:13.319Z,21.10
2018-07-19T20:22:11.240Z,20.80
2018-07-19T20:24:40.853Z,20.80
2018-07-19T20:27:10.285Z,20.60
2018-07-19T20:29:39.348Z,20.50
2018-07-19T20:32:08.420Z,20.50
2018-07-19T20:37:06.195Z,20.50
2018-07-19T20:42:03.996Z,20.30
2018-07-19T20:44:33.047Z,20.10
2018-07-19T20:47:02.167Z,20.00
2018-07-19T20:51:59.928Z,19.90
2018-07-19T20:54:29.008Z,19.90
2018-07-19T20:56:58.060Z,20.10
2018-07-19T20:59:27.146Z,20.10
2018-07-19T21:04:24.892Z,20.00
2018-07-19T21:06:53.948Z,20.00
2018-07-19T21:09:23.024Z,20.00
2018-07-19T21:14:20.803Z,19.80
2018-07-19T21:19:18.655Z,19.50
2018-07-19T21:21:47.716Z,19.60
2018-07-19T21:24:16.808Z,19.50
2018-07-19T21:26:45.872Z,19.50
2018-07-19T21:31:43.621Z,19.30
2018-07-19T21:34:12.684Z,19.20
2018-07-19T21:36:41.756Z,19.20
2018-07-19T21:41:40.820Z,19.00
2018-07-19T21:44:10.533Z,19.00
2018-07-19T21:46:39.611Z,19.00
2018-07-19T21:49:08.670Z,18.90
2018-07-19T21:56:35.105Z,18.60
2018-07-19T21:59:04.200Z,18.50
2018-07-19T22:01:33.296Z,18.40
2018-07-19T22:04:02.357Z,18.40
2018-07-19T22:06:31.427Z,18.40
2018-07-19T22:13:57.884Z,18.20
2018-07-19T22:23:53.024Z,18.20
2018-07-19T22:26:22.169Z,18.10
2018-07-19T22:28:51.604Z,18.00
2018-07-19T22:31:20.919Z,17.90
2018-07-19T22:33:50.596Z,17.80
2018-07-19T22:36:19.745Z,17.70
2018-07-19T22:38:48.840Z,17.70
2018-07-19T22:41:17.924Z,17.70
2018-07-19T22:43:46.984Z,17.70
2018-07-19T22:46:16.057Z,17.70
2018-07-19T22:48:45.124Z,17.60
2018-07-19T22:51:14.198Z,17.50
2018-07-19T22:56:11.960Z,17.50
2018-07-19T22:58:41.028Z,17.50
2018-07-19T23:01:10.084Z,17.30
2018-07-19T23:03:39.155Z,17.30
2018-07-19T23:06:08.316Z,17.40
2018-07-19T23:08:37.392Z,17.30
2018-07-19T23:11:06.460Z,17.20
2018-07-19T23:13:35.595Z,17.20
2018-07-19T23:18:33.339Z,17.00
2018-07-19T23:21:02.392Z,17.10
2018-07-19T23:23:31.455Z,17.00
2018-07-19T23:26:00.526Z,16.90
2018-07-19T23:28:29.603Z,16.90
2018-07-19T23:30:58.660Z,16.70
2018-07-19T23:36:06.531Z,16.60
2018-07-19T23:38:48.131Z,16.70
2018-07-19T23:41:23.267Z,16.70
2018-07-19T23:43:56.173Z,16.70
2018-07-19T23:46:29.363Z,16.60
2018-07-19T23:49:02.664Z,16.50
2018-07-19T23:51:31.719Z,16.40
2018-07-19T23:54:00.807Z,16.40
2018-07-19T23:56:29.864Z,16.50
